Map

Track Data

SID SEASON NUMBER BASIN SUBBASIN NAME ISO_TIME NATURE LAT LON WMO_WIND WMO_PRES WMO_AGENCY TRACK_TYPE DIST2LAND LANDFALL IFLAG USA_AGENCY USA_ATCF_ID USA_LAT USA_LON USA_RECORD USA_STATUS USA_WIND USA_PRES USA_SSHS USA_R34_NE USA_R34_SE USA_R34_SW USA_R34_NW USA_R50_NE USA_R50_SE USA_R50_SW USA_R50_NW USA_R64_NE USA_R64_SE USA_R64_SW USA_R64_NW USA_POCI USA_ROCI USA_RMW USA_EYE TOKYO_LAT TOKYO_LON TOKYO_GRADE TOKYO_WIND TOKYO_PRES TOKYO_R50_DIR TOKYO_R50_LONG TOKYO_R50_SHORT TOKYO_R30_DIR TOKYO_R30_LONG TOKYO_R30_SHORT TOKYO_LAND CMA_LAT CMA_LON CMA_CAT CMA_WIND CMA_PRES HKO_LAT HKO_LON HKO_CAT HKO_WIND HKO_PRES NEWDELHI_LAT NEWDELHI_LON NEWDELHI_GRADE NEWDELHI_WIND NEWDELHI_PRES NEWDELHI_CI NEWDELHI_DP NEWDELHI_POCI REUNION_LAT REUNION_LON REUNION_TYPE REUNION_WIND REUNION_PRES REUNION_TNUM REUNION_CI REUNION_RMW REUNION_R34_NE REUNION_R34_SE REUNION_R34_SW REUNION_R34_NW REUNION_R50_NE REUNION_R50_SE REUNION_R50_SW REUNION_R50_NW REUNION_R64_NE REUNION_R64_SE REUNION_R64_SW REUNION_R64_NW BOM_LAT BOM_LON BOM_TYPE BOM_WIND BOM_PRES BOM_TNUM BOM_CI BOM_RMW BOM_R34_NE BOM_R34_SE BOM_R34_SW BOM_R34_NW BOM_R50_NE BOM_R50_SE BOM_R50_SW BOM_R50_NW BOM_R64_NE BOM_R64_SE BOM_R64_SW BOM_R64_NW BOM_ROCI BOM_POCI BOM_EYE BOM_POS_METHOD BOM_PRES_METHOD NADI_LAT NADI_LON NADI_CAT NADI_WIND NADI_PRES WELLINGTON_LAT WELLINGTON_LON WELLINGTON_WIND WELLINGTON_PRES DS824_LAT DS824_LON DS824_STAGE DS824_WIND DS824_PRES TD9636_LAT TD9636_LON TD9636_STAGE TD9636_WIND TD9636_PRES TD9635_LAT TD9635_LON TD9635_WIND TD9635_PRES TD9635_ROCI NEUMANN_LAT NEUMANN_LON NEUMANN_CLASS NEUMANN_WIND NEUMANN_PRES MLC_LAT MLC_LON MLC_CLASS MLC_WIND MLC_PRES USA_GUST BOM_GUST BOM_GUST_PER REUNION_GUST REUNION_GUST_PER USA_SEAHGT USA_SEARAD_NE USA_SEARAD_SE USA_SEARAD_SW USA_SEARAD_NW STORM_SPEED STORM_DIR
1886224N11303 1886 22 NA NA NOT_NAMED 1886-08-12 06:00:00 TS 10.8333 -56.6333 35 hurdat_atl main 409 395 O____________O hurdat_atl AL051886 10.5000 -58.0000 TS 35 0 11.5000 -53.9000 TS 35 12 298
1886224N11303 1886 22 NA NA NOT_NAMED 1886-08-12 09:00:00 TS 11.1102 -57.1707 main 399 368 P____________P AL051886 10.7901 -58.4499 TS 37 0 11.7504 -54.6122 TS 35 12 298
1886224N11303 1886 22 NA NA NOT_NAMED 1886-08-12 12:00:00 TS 11.4000 -57.7000 40 hurdat_atl main 368 325 O____________O hurdat_atl AL051886 11.1000 -58.9000 TS 40 0 12.0000 -55.3000 TS 35 12 300
1886224N11303 1886 22 NA NA NOT_NAMED 1886-08-12 15:00:00 TS 11.7115 -58.2168 main 325 290 P____________P AL051886 11.4424 -59.3501 TS 42 0 12.2497 -55.9502 TS 37 12 302
1886224N11303 1886 22 NA NA NOT_NAMED 1886-08-12 18:00:00 TS 12.0333 -58.7333 45 hurdat_atl main 290 265 O____________O hurdat_atl AL051886 11.8000 -59.8000 TS 45 0 12.5000 -56.6000 TS 40 12 302
1886224N11303 1886 22 NA NA NOT_NAMED 1886-08-12 21:00:00 TS 12.3499 -59.2618 main 257 249 P____________P AL051886 12.1499 -60.2426 TS 47 0 12.7499 -57.3001 TS 40 12 301
1886224N11303 1886 22 NA CS NOT_NAMED 1886-08-13 00:00:00 TS 12.6667 -59.8000 50 hurdat_atl main 259 254 O____________O hurdat_atl AL051886 12.5000 -60.7000 TS 50 0 13.0000 -58.0000 TS 40 12 301
1886224N11303 1886 22 NA CS NOT_NAMED 1886-08-13 03:00:00 TS 12.9757 -60.3452 main 268 263 P____________P AL051886 12.8424 -61.1927 TS 52 0 13.2422 -58.6502 TS 42 12 301
1886224N11303 1886 22 NA CS NOT_NAMED 1886-08-13 06:00:00 TS 13.3000 -60.9000 55 hurdat_atl main 291 291 O____________O hurdat_atl AL051886 13.2000 -61.7000 TS 55 0 13.5000 -59.3000 TS 45 13 303
1886224N11303 1886 22 NA CS NOT_NAMED 1886-08-13 09:00:00 TS 13.6715 -61.4567 main 335 335 P____________P AL051886 13.6073 -62.1851 TS 57 0 13.7999 -60.0000 TS 45 13 304
1886224N11303 1886 22 NA CS NOT_NAMED 1886-08-13 12:00:00 TS 14.0333 -62.0333 60 hurdat_atl main 370 370 O____________O hurdat_atl AL051886 14.0000 -62.7000 TS 60 0 14.1000 -60.7000 TS 45 13 300
1886224N11303 1886 22 NA CS NOT_NAMED 1886-08-13 15:00:00 TS 14.3265 -62.6353 main 403 403 P____________P AL051886 14.3149 -63.2777 TS 62 0 14.3497 -61.3503 TS 45 13 295
1886224N11303 1886 22 NA CS NOT_NAMED 1886-08-13 18:00:00 TS 14.6000 -63.2667 65 hurdat_atl main 437 401 O____________O hurdat_atl AL051886 14.6000 -63.9000 HU 65 1 14.6000 -62.0000 TS 45 14 295
1886224N11303 1886 22 NA CS NOT_NAMED 1886-08-13 21:00:00 TS 14.9050 -63.9433 main 401 338 P____________P AL051886 14.9076 -64.5650 HU 67 1 14.8999 -62.7000 TS 45 14 295
1886224N11303 1886 22 NA CS NOT_NAMED 1886-08-14 00:00:00 TS 15.2000 -64.6000 70 hurdat_atl main 338 300 O____________O hurdat_atl AL051886 15.2000 -65.2000 HU 70 1 15.2000 -63.4000 TS 45 13 295
1886224N11303 1886 22 NA CS NOT_NAMED 1886-08-14 03:00:00 TS 15.4497 -65.1603 main 297 251 P____________P AL051886 15.4497 -65.7153 HU 72 1 15.4497 -64.0504 TS 45 12 295
1886224N11303 1886 22 NA CS NOT_NAMED 1886-08-14 06:00:00 TS 15.7000 -65.7000 75 hurdat_atl main 251 212 O____________O hurdat_atl AL051886 15.7000 -66.2000 HU 75 1 15.7000 -64.7000 TS 45 12 296
1886224N11303 1886 22 NA CS NOT_NAMED 1886-08-14 09:00:00 TS 15.9950 -66.3000 main 212 179 P____________P AL051886 15.9925 -66.7500 HU 77 1 15.9999 -65.4000 TS 45 13 297
1886224N11303 1886 22 NA CS NOT_NAMED 1886-08-14 12:00:00 TS 16.3000 -66.9000 80 hurdat_atl main 179 147 O____________O hurdat_atl AL051886 16.3000 -67.3000 HU 80 1 16.3000 -66.1000 TS 45 13 298
1886224N11303 1886 22 NA CS NOT_NAMED 1886-08-14 15:00:00 TS 16.5881 -67.4552 main 148 138 P____________P AL051886 16.6073 -67.8076 HU 82 1 16.5497 -66.7504 TS 45 12 298
1886224N11303 1886 22 NA CS NOT_NAMED 1886-08-14 18:00:00 TS 16.8667 -68.0000 85 hurdat_atl main 140 123 O____________O hurdat_atl AL051886 16.9000 -68.3000 HU 85 2 16.8000 -67.4000 TS 45 12 297
1886224N11303 1886 22 NA CS NOT_NAMED 1886-08-14 21:00:00 TS 17.1382 -68.5693 main 123 91 P____________P AL051886 17.1574 -68.8077 HU 85 2 17.0998 -68.0925 TS 45 12 296
1886224N11303 1886 22 NA CS NOT_NAMED 1886-08-15 00:00:00 TS 17.4000 -69.1333 85 hurdat_atl main 94 89 O____________O hurdat_atl AL051886 17.4000 -69.3000 HU 85 2 17.4000 -68.8000 TS 45 12 296
1886224N11303 1886 22 NA CS NOT_NAMED 1886-08-15 03:00:00 TS 17.6549 -69.6743 main 76 33 P____________P AL051886 17.6572 -69.7427 HU 85 2 17.6501 -69.5377 TS 45 11 296
1886224N11303 1886 22 NA CS NOT_NAMED 1886-08-15 06:00:00 TS 17.9000 -70.2000 85 hurdat_atl main 33 11 O____________O hurdat_atl AL051886 17.9000 -70.2000 HU 85 2 17.9000 -70.2000 TS 45 11 296
1886224N11303 1886 22 NA CS NOT_NAMED 1886-08-15 09:00:00 TS 18.1406 -70.7093 main 23 0 P____________P AL051886 18.1148 -70.7201 HU 82 1 18.1921 -70.6877 TS 45 11 295
1886224N11303 1886 22 NA NA NOT_NAMED 1886-08-15 12:00:00 TS 18.3667 -71.2333 80 hurdat_atl main 0 0 O____________O hurdat_atl AL051886 18.3000 -71.3000 HU 80 1 18.5000 -71.1000 TS 45 11 293
1886224N11303 1886 22 NA NA NOT_NAMED 1886-08-15 15:00:00 TS 18.5766 -71.8068 main 0 0 P____________P AL051886 18.4649 -71.9351 HU 77 1 18.7999 -71.5502 TS 45 12 290
1886224N11303 1886 22 NA NA NOT_NAMED 1886-08-15 18:00:00 TS 18.7667 -72.4000 75 hurdat_atl main 0 0 O____________O hurdat_atl AL051886 18.6000 -72.6000 HU 75 1 19.1000 -72.0000 TS 45 12 288
1886224N11303 1886 22 NA CS NOT_NAMED 1886-08-15 21:00:00 TS 18.9331 -72.9811 main 23 21 P____________P AL051886 18.6998 -73.2503 HU 72 1 19.3998 -72.4427 TS 47 12 287
1886224N11303 1886 22 NA CS NOT_NAMED 1886-08-16 00:00:00 TS 19.1000 -73.5667 70 hurdat_atl main 59 54 O____________O hurdat_atl AL051886 18.8000 -73.9000 HU 70 1 19.7000 -72.9000 TS 50 12 288
1886224N11303 1886 22 NA CS NOT_NAMED 1886-08-16 03:00:00 TS 19.2898 -74.1668 main 78 54 P____________P AL051886 18.9348 -74.5501 HU 75 1 20.0000 -73.4001 TS 52 12 289
1886224N11303 1886 22 NA CS NOT_NAMED 1886-08-16 06:00:00 TS 19.5000 -74.7667 80 hurdat_atl main 49 22 O____________O hurdat_atl AL051886 19.1000 -75.2000 HU 80 1 20.3000 -73.9000 TS 55 12 290
1886224N11303 1886 22 NA CS NOT_NAMED 1886-08-16 09:00:00 TS 19.7034 -75.3777 main 22 10 P____________P AL051886 19.2551 -75.8877 HU 82 1 20.5998 -74.3577 TS 57 12 293
1886224N11303 1886 22 NA CS NOT_NAMED 1886-08-16 12:00:00 TS 19.9667 -75.9333 85 hurdat_atl main 0 0 O____________O hurdat_atl AL051886 19.5000 -76.5000 HU 85 2 20.9000 -74.8000 TS 60 11 304
1886224N11303 1886 22 NA NA NOT_NAMED 1886-08-16 15:00:00 TS 20.3414 -76.3752 main 0 0 P____________P AL051886 19.9121 -76.9376 HU 82 1 21.1999 -75.2502 TS 60 11 316
1886224N11303 1886 22 NA NA NOT_NAMED 1886-08-16 18:00:00 TS 20.7667 -76.7667 80 hurdat_atl main 0 0 O____________O hurdat_atl AL051886 20.4000 -77.3000 HU 80 1 21.5000 -75.7000 TS 60 11 318
1886224N11303 1886 22 NA NA NOT_NAMED 1886-08-16 21:00:00 TS 21.1715 -77.1786 main 0 0 P____________P AL051886 20.8573 -77.6927 HU 77 1 21.7999 -76.1502 TS 65 11 316
1886224N11303 1886 22 NA NA NOT_NAMED 1886-08-17 00:00:00 TS 21.5667 -77.6000 75 hurdat_atl main 0 0 O____________O hurdat_atl AL051886 21.3000 -78.1000 HU 75 1 22.1000 -76.6000 HU 70 11 315
1886224N11303 1886 22 NA NA NOT_NAMED 1886-08-17 03:00:00 TS 21.9657 -78.0425 main 0 0 P____________P AL051886 21.7375 -78.5574 HU 72 1 22.4220 -77.0126 HU 72 11 311
1886224N11303 1886 22 NA NA NOT_NAMED 1886-08-17 06:00:00 TS 22.3000 -78.5000 70 hurdat_atl main 0 0 O____________O hurdat_atl AL051886 22.1000 -79.0000 HU 70 1 22.7000 -77.5000 HU 75 10 302
1886224N11303 1886 22 NA NA NOT_NAMED 1886-08-17 09:00:00 TS 22.4982 -78.9597 main 22 10 P____________P AL051886 22.3148 -79.3581 HU 62 0 22.8651 -78.1629 HU 65 9 293
1886224N11303 1886 22 NA NA NOT_NAMED 1886-08-17 12:00:00 TS 22.6667 -79.4333 55 hurdat_atl main 15 0 O____________O hurdat_atl AL051886 22.5000 -79.7000 TS 55 0 23.0000 -78.9000 TS 55 10 295
1886224N11303 1886 22 NA NA NOT_NAMED 1886-08-17 15:00:00 TS 22.9155 -79.9086 main 10 0 P____________P AL051886 22.7772 -80.0628 TS 57 0 23.1922 -79.6001 TS 57 11 300
1886224N11303 1886 22 NA NA NOT_NAMED 1886-08-17 18:00:00 TS 23.2000 -80.4333 60 hurdat_atl main 24 22 O____________O hurdat_atl AL051886 23.1000 -80.5000 TS 60 0 23.4000 -80.3000 TS 60 12 300
1886224N11303 1886 22 NA NA NOT_NAMED 1886-08-17 21:00:00 TS 23.5049 -81.0416 main 54 49 P____________P AL051886 23.4575 -81.0624 TS 62 0 23.5997 -81.0002 TS 62 13 297
1886224N11303 1886 22 NA NA NOT_NAMED 1886-08-18 00:00:00 TS 23.8000 -81.7000 65 hurdat_atl main 78 78 O____________O hurdat_atl AL051886 23.8000 -81.7000 HU 65 1 23.8000 -81.7000 HU 65 13 294
1886224N11303 1886 22 NA NA NOT_NAMED 1886-08-18 03:00:00 TS 24.0481 -82.3595 main 100 100 P____________P AL051886 24.0723 -82.3428 HU 67 1 23.9996 -82.3928 HU 67 13 291
1886224N11303 1886 22 NA GM NOT_NAMED 1886-08-18 06:00:00 TS 24.2667 -83.0333 70 hurdat_atl main 143 143 O____________O hurdat_atl AL051886 24.3000 -83.0000 HU 70 1 24.2000 -83.1000 HU 70 13 289
1886224N11303 1886 22 NA GM NOT_NAMED 1886-08-18 09:00:00 TS 24.4611 -83.6923 main 181 181 P____________P AL051886 24.4917 -83.6133 HU 72 1 24.3998 -83.8502 HU 72 13 288
1886224N11303 1886 22 NA GM NOT_NAMED 1886-08-18 12:00:00 TS 24.6667 -84.4000 75 hurdat_atl main 223 223 O____________O hurdat_atl AL051886 24.7000 -84.3000 HU 75 1 24.6000 -84.6000 HU 75 15 289
1886224N11303 1886 22 NA GM NOT_NAMED 1886-08-18 15:00:00 TS 24.9382 -85.2081 main 274 274 P____________P AL051886 25.0076 -85.1619 HU 75 1 24.7995 -85.3003 HU 77 16 289
1886224N11303 1886 22 NA GM NOT_NAMED 1886-08-18 18:00:00 TS 25.2000 -86.0667 75 hurdat_atl main 351 351 O____________O hurdat_atl AL051886 25.3000 -86.1000 HU 75 1 25.0000 -86.0000 HU 80 16 286
1886224N11303 1886 22 NA GM NOT_NAMED 1886-08-18 21:00:00 TS 25.3837 -86.9172 main 421 414 P____________P AL051886 25.4719 -87.0007 HU 77 1 25.2073 -86.7500 HU 82 16 282
1886224N11303 1886 22 NA GM NOT_NAMED 1886-08-19 00:00:00 TS 25.5333 -87.7667 80 hurdat_atl main 411 373 O____________O hurdat_atl AL051886 25.6000 -87.9000 HU 80 1 25.4000 -87.5000 HU 85 15 281
1886224N11303 1886 22 NA GM NOT_NAMED 1886-08-19 03:00:00 TS 25.6774 -88.5806 main 371 357 P____________P AL051886 25.7414 -88.7706 HU 85 2 25.5494 -88.2005 HU 87 15 281
1886224N11303 1886 22 NA GM NOT_NAMED 1886-08-19 06:00:00 TS 25.8333 -89.4333 90 hurdat_atl main 358 346 O____________O hurdat_atl AL051886 25.9000 -89.7000 HU 90 2 25.7000 -88.9000 HU 90 17 282
1886224N11303 1886 22 NA GM NOT_NAMED 1886-08-19 09:00:00 TS 26.0364 -90.4363 main 346 323 P____________P AL051886 26.1085 -90.8294 HU 95 2 25.8923 -89.6500 HU 95 18 283
1886224N11303 1886 22 NA GM NOT_NAMED 1886-08-19 12:00:00 TS 26.2333 -91.4000 100 hurdat_atl main 327 318 O____________O hurdat_atl AL051886 26.3000 -91.9000 HU 100 3 26.1000 -90.4000 MH 100 16 282
1886224N11303 1886 22 NA GM NOT_NAMED 1886-08-19 15:00:00 TS 26.3707 -92.1530 main 327 327 P____________P AL051886 26.4063 -92.6757 HU 105 3 26.2995 -91.1078 MH 105 13 282
1886224N11303 1886 22 NA GM NOT_NAMED 1886-08-19 18:00:00 TS 26.5000 -92.8000 110 hurdat_atl main 338 321 O____________O hurdat_atl AL051886 26.5000 -93.3000 HU 110 3 26.5000 -91.8000 MH 110 12 283
1886224N11303 1886 22 NA GM NOT_NAMED 1886-08-19 21:00:00 TS 26.6463 -93.4487 main 321 271 P____________P AL051886 26.6196 -93.9229 HU 115 4 26.6997 -92.5003 MH 115 12 286
1886224N11303 1886 22 NA GM NOT_NAMED 1886-08-20 00:00:00 TS 26.8333 -94.0667 120 hurdat_atl main 266 215 O____________O hurdat_atl AL051886 26.8000 -94.5000 HU 120 4 26.9000 -93.2000 MH 120 12 292
1886224N11303 1886 22 NA GM NOT_NAMED 1886-08-20 03:00:00 TS 27.0847 -94.6767 main 210 155 P____________P AL051886 27.0773 -95.0649 HU 125 4 27.0997 -93.9003 MH 122 12 297
1886224N11303 1886 22 NA GM NOT_NAMED 1886-08-20 06:00:00 TS 27.3667 -95.2667 130 hurdat_atl main 150 106 O____________O hurdat_atl AL051886 27.4000 -95.6000 HU 130 4 27.3000 -94.6000 MH 125 11 298
1886224N11303 1886 22 NA GM NOT_NAMED 1886-08-20 09:00:00 TS 27.6181 -95.8224 main 106 51 P____________P AL051886 27.6997 -96.0793 HU 130 4 27.4548 -95.3085 MH 127 11 298
1886224N11303 1886 22 NA GM NOT_NAMED 1886-08-20 12:00:00 TS 27.9000 -96.4000 130 925 hurdat_atl main 51 29 O____________O hurdat_atl AL051886 28.0000 -96.6000 HU 130 925 4 27.7000 -96.0000 MH 130 925 12 300
1886224N11303 1886 22 NA GM NOT_NAMED 1886-08-20 13:00:00 TS 28.0116 -96.6065 130 925 hurdat_atl main 29 0 O____________P hurdat_atl AL051886 28.1000 -96.8000 L HU 130 925 4 27.8348 -96.2196 MH 122 931 14 306
1886224N11303 1886 22 NA NA NOT_NAMED 1886-08-20 15:00:00 TS 28.3250 -97.0615 main 0 0 P____________P AL051886 28.4065 -97.2674 HU 111 941 3 28.1620 -96.6498 MH 107 945 16 311
1886224N11303 1886 22 NA NA NOT_NAMED 1886-08-20 18:00:00 TS 28.9000 -97.7667 85 965 hurdat_atl main 0 0 O____________O hurdat_atl AL051886 29.0000 -98.0000 HU 85 965 2 28.7000 -97.3000 HU 85 965 16 313
1886224N11303 1886 22 NA NA NOT_NAMED 1886-08-20 21:00:00 TS 29.3875 -98.3776 main 0 0 P____________P AL051886 29.5063 -98.5661 HU 72 1 29.1499 -98.0007 HU 72 14 314
1886224N11303 1886 22 NA NA NOT_NAMED 1886-08-21 00:00:00 TS 29.8667 -98.9000 60 hurdat_atl main 0 0 O____________O hurdat_atl AL051886 30.0000 -99.0000 TS 60 0 29.6000 -98.7000 TS 60 13 320
1886224N11303 1886 22 NA NA NOT_NAMED 1886-08-21 03:00:00 TS 30.3637 -99.3251 main 0 0 P____________P AL051886 30.4994 -99.2939 TS 55 0 30.0925 -99.3876 TS 55 12 324
1886224N11303 1886 22 NA NA NOT_NAMED 1886-08-21 06:00:00 TS 30.8667 -99.7333 50 hurdat_atl main 0 0 O____________O hurdat_atl AL051886 31.0000 -99.6000 TS 50 0 30.6000 -100.000 TS 50 13 321
1886224N11303 1886 22 NA NA NOT_NAMED 1886-08-21 09:00:00 TS 31.3419 -100.258 main 0 0 P____________P AL051886 31.4631 -100.150 TS 42 0 31.0994 -100.474 TS 42 13 319
1886224N11303 1886 22 NA NA NOT_NAMED 1886-08-21 12:00:00 TS 31.8667 -100.767 35 hurdat_atl main 0 0 O____________O hurdat_atl AL051886 32.0000 -100.700 TS 35 0 31.6000 -100.900 TS 35 14 326
1886224N11303 1886 22 NA NA NOT_NAMED 1886-08-21 15:00:00 TS 32.5000 -101.168 main 0 0 P____________P AL051886 32.6996 -101.062 TS 30 -1 32.1007 -101.379 TS 30 15 335
1886224N11303 1886 22 NA NA NOT_NAMED 1886-08-21 18:00:00 TS 33.2000 -101.500 25 hurdat_atl main 0 O____________O hurdat_atl AL051886 33.5000 -101.300 TD 25 -1 32.6000 -101.900 TD 25 15 338

About IBTrACS Database

This database is a web-friendly format of International Best Track Archive for Climate Stewardship (IBTrACS), a global best track data archive curated by NOAA dating back to 1842.

Updated: 2021-12-03